sensor_id;sensor_type;location;lat;lon;timestamp;P1;durP1;ratioP1;P2;durP2;ratioP2
66800;SDS011;53703;50.326;19.122;2023-10-09T09:41:21;17.00;;;8.40;;
66800;SDS011;53703;50.326;19.122;2023-10-09T09:43:54;15.70;;;6.70;;
66800;SDS011;53703;50.326;19.122;2023-10-09T09:46:28;13.80;;;6.80;;
66800;SDS011;53703;50.326;19.122;2023-10-09T09:49:02;13.20;;;6.50;;
66800;SDS011;53703;50.326;19.122;2023-10-09T09:51:33;13.60;;;6.90;;
66800;SDS011;53703;50.326;19.122;2023-10-09T09:54:03;13.00;;;5.60;;
66800;SDS011;53703;50.326;19.122;2023-10-09T09:56:38;11.80;;;5.70;;
66800;SDS011;53703;50.326;19.122;2023-10-09T09:59:12;10.40;;;5.70;;
66800;SDS011;53703;50.326;19.122;2023-10-09T10:01:49;11.40;;;5.90;;
66800;SDS011;53703;50.326;19.122;2023-10-09T10:04:26;11.50;;;5.90;;
66800;SDS011;53703;50.326;19.122;2023-10-09T10:07:03;13.40;;;6.10;;
66800;SDS011;53703;50.326;19.122;2023-10-09T10:09:37;8.60;;;4.90;;
66800;SDS011;53703;50.326;19.122;2023-10-09T10:12:09;15.20;;;8.20;;
66800;SDS011;53703;50.326;19.122;2023-10-09T10:14:54;10.40;;;5.40;;
66800;SDS011;53703;50.326;19.122;2023-10-09T10:17:26;10.00;;;5.10;;
66800;SDS011;53703;50.326;19.122;2023-10-09T10:20:05;8.60;;;4.80;;
66800;SDS011;53703;50.326;19.122;2023-10-09T10:23:15;8.50;;;4.30;;
66800;SDS011;53703;50.326;19.122;2023-10-09T10:25:48;7.60;;;4.20;;
66800;SDS011;53703;50.326;19.122;2023-10-09T10:28:19;9.50;;;3.80;;
66800;SDS011;53703;50.326;19.122;2023-10-09T10:31:07;7.60;;;3.70;;
66800;SDS011;53703;50.326;19.122;2023-10-09T10:34:04;6.70;;;3.60;;
66800;SDS011;53703;50.326;19.122;2023-10-09T10:36:38;6.80;;;3.80;;
66800;SDS011;53703;50.326;19.122;2023-10-09T10:39:12;6.80;;;4.00;;
66800;SDS011;53703;50.326;19.122;2023-10-09T10:41:56;7.60;;;4.70;;
66800;SDS011;53703;50.326;19.122;2023-10-09T10:44:29;8.20;;;4.90;;
66800;SDS011;53703;50.326;19.122;2023-10-09T10:47:05;21.00;;;6.30;;
66800;SDS011;53703;50.326;19.122;2023-10-09T10:49:50;9.70;;;4.90;;
66800;SDS011;53703;50.326;19.122;2023-10-09T10:52:26;10.70;;;4.80;;
66800;SDS011;53703;50.326;19.122;2023-10-09T10:55:14;9.20;;;4.20;;
66800;SDS011;53703;50.326;19.122;2023-10-09T10:58:16;9.20;;;4.70;;
66800;SDS011;53703;50.326;19.122;2023-10-09T11:01:03;10.80;;;5.50;;
66800;SDS011;53703;50.326;19.122;2023-10-09T11:03:40;8.60;;;4.40;;
66800;SDS011;53703;50.326;19.122;2023-10-09T11:06:28;11.80;;;4.90;;
66800;SDS011;53703;50.326;19.122;2023-10-09T11:09:06;7.50;;;3.90;;
66800;SDS011;53703;50.326;19.122;2023-10-09T11:11:50;7.20;;;3.90;;
66800;SDS011;53703;50.326;19.122;2023-10-09T11:14:23;6.50;;;3.20;;
66800;SDS011;53703;50.326;19.122;2023-10-09T11:16:52;8.00;;;3.80;;
66800;SDS011;53703;50.326;19.122;2023-10-09T11:19:25;6.80;;;3.40;;
66800;SDS011;53703;50.326;19.122;2023-10-09T11:22:00;10.70;;;5.00;;
66800;SDS011;53703;50.326;19.122;2023-10-09T11:24:56;7.10;;;3.80;;
66800;SDS011;53703;50.326;19.122;2023-10-09T11:27:41;7.50;;;3.90;;
66800;SDS011;53703;50.326;19.122;2023-10-09T11:30:18;6.10;;;3.00;;
66800;SDS011;53703;50.326;19.122;2023-10-09T11:33:07;6.90;;;3.10;;
66800;SDS011;53703;50.326;19.122;2023-10-09T11:35:42;6.10;;;3.10;;
66800;SDS011;53703;50.326;19.122;2023-10-09T11:38:25;5.80;;;2.80;;
66800;SDS011;53703;50.326;19.122;2023-10-09T11:40:56;6.20;;;2.80;;
66800;SDS011;53703;50.326;19.122;2023-10-09T11:43:49;5.50;;;3.50;;
66800;SDS011;53703;50.326;19.122;2023-10-09T11:46:22;8.40;;;3.50;;
66800;SDS011;53703;50.326;19.122;2023-10-09T11:49:16;7.80;;;3.70;;
66800;SDS011;53703;50.326;19.122;2023-10-09T11:52:07;6.50;;;3.00;;
66800;SDS011;53703;50.326;19.122;2023-10-09T11:54:55;6.60;;;2.60;;
66800;SDS011;53703;50.326;19.122;2023-10-09T11:57:25;5.80;;;2.90;;
66800;SDS011;53703;50.326;19.122;2023-10-09T12:00:03;6.90;;;2.70;;
66800;SDS011;53703;50.326;19.122;2023-10-09T12:02:52;6.50;;;3.00;;
66800;SDS011;53703;50.326;19.122;2023-10-09T12:05:22;6.50;;;3.10;;
66800;SDS011;53703;50.326;19.122;2023-10-09T12:07:55;5.10;;;3.00;;
66800;SDS011;53703;50.326;19.122;2023-10-09T12:10:27;5.20;;;2.70;;
66800;SDS011;53703;50.326;19.122;2023-10-09T12:12:57;6.10;;;2.90;;
66800;SDS011;53703;50.326;19.122;2023-10-09T12:15:27;4.80;;;2.70;;
66800;SDS011;53703;50.326;19.122;2023-10-09T12:18:06;6.00;;;2.50;;
66800;SDS011;53703;50.326;19.122;2023-10-09T12:20:43;4.60;;;2.80;;
66800;SDS011;53703;50.326;19.122;2023-10-09T12:23:20;4.80;;;2.70;;
66800;SDS011;53703;50.326;19.122;2023-10-09T12:25:50;5.50;;;3.00;;
66800;SDS011;53703;50.326;19.122;2023-10-09T12:28:24;5.70;;;2.90;;
66800;SDS011;53703;50.326;19.122;2023-10-09T12:30:54;9.50;;;3.00;;
66800;SDS011;53703;50.326;19.122;2023-10-09T12:33:23;5.40;;;3.10;;
66800;SDS011;53703;50.326;19.122;2023-10-09T12:35:56;7.00;;;3.20;;
66800;SDS011;53703;50.326;19.122;2023-10-09T12:38:28;6.10;;;2.80;;
66800;SDS011;53703;50.326;19.122;2023-10-09T12:41:04;5.70;;;3.00;;
66800;SDS011;53703;50.326;19.122;2023-10-09T12:43:45;5.00;;;2.60;;
66800;SDS011;53703;50.326;19.122;2023-10-09T12:46:15;5.60;;;2.50;;
66800;SDS011;53703;50.326;19.122;2023-10-09T12:48:45;4.90;;;2.70;;
66800;SDS011;53703;50.326;19.122;2023-10-09T12:51:15;13.00;;;3.50;;
66800;SDS011;53703;50.326;19.122;2023-10-09T12:53:45;6.30;;;3.10;;
66800;SDS011;53703;50.326;19.122;2023-10-09T12:56:16;5.20;;;2.60;;
66800;SDS011;53703;50.326;19.122;2023-10-09T12:58:46;5.20;;;3.10;;
66800;SDS011;53703;50.326;19.122;2023-10-09T13:01:20;5.90;;;3.70;;
66800;SDS011;53703;50.326;19.122;2023-10-09T13:03:49;6.00;;;3.10;;
66800;SDS011;53703;50.326;19.122;2023-10-09T13:06:19;8.60;;;4.00;;
66800;SDS011;53703;50.326;19.122;2023-10-09T13:08:51;8.30;;;3.60;;
66800;SDS011;53703;50.326;19.122;2023-10-09T13:11:21;9.50;;;4.90;;
66800;SDS011;53703;50.326;19.122;2023-10-09T13:13:53;10.20;;;4.80;;
66800;SDS011;53703;50.326;19.122;2023-10-09T13:16:23;8.00;;;4.60;;
66800;SDS011;53703;50.326;19.122;2023-10-09T13:18:54;8.90;;;4.50;;
66800;SDS011;53703;50.326;19.122;2023-10-09T13:21:25;10.60;;;4.40;;
66800;SDS011;53703;50.326;19.122;2023-10-09T13:23:59;9.10;;;4.10;;
66800;SDS011;53703;50.326;19.122;2023-10-09T13:26:30;7.20;;;3.80;;
66800;SDS011;53703;50.326;19.122;2023-10-09T13:29:03;7.70;;;4.10;;
66800;SDS011;53703;50.326;19.122;2023-10-09T13:31:37;8.50;;;4.10;;
66800;SDS011;53703;50.326;19.122;2023-10-09T13:34:14;8.10;;;4.10;;
66800;SDS011;53703;50.326;19.122;2023-10-09T13:36:44;6.50;;;4.40;;
66800;SDS011;53703;50.326;19.122;2023-10-09T13:39:20;8.80;;;4.00;;
66800;SDS011;53703;50.326;19.122;2023-10-09T13:41:53;6.70;;;3.90;;
66800;SDS011;53703;50.326;19.122;2023-10-09T13:44:26;7.30;;;4.00;;
66800;SDS011;53703;50.326;19.122;2023-10-09T13:46:56;7.10;;;3.80;;
66800;SDS011;53703;50.326;19.122;2023-10-09T13:49:26;8.10;;;4.20;;
66800;SDS011;53703;50.326;19.122;2023-10-09T13:51:58;6.60;;;3.90;;
66800;SDS011;53703;50.326;19.122;2023-10-09T13:54:30;8.20;;;3.90;;
66800;SDS011;53703;50.326;19.122;2023-10-09T13:57:07;8.20;;;4.50;;
66800;SDS011;53703;50.326;19.122;2023-10-09T13:59:38;8.70;;;3.80;;
66800;SDS011;53703;50.326;19.122;2023-10-09T14:02:11;8.70;;;4.40;;
66800;SDS011;53703;50.326;19.122;2023-10-09T14:04:46;6.50;;;3.80;;
66800;SDS011;53703;50.326;19.122;2023-10-09T14:07:16;9.30;;;5.00;;
66800;SDS011;53703;50.326;19.122;2023-10-09T14:09:45;8.40;;;4.10;;
66800;SDS011;53703;50.326;19.122;2023-10-09T14:12:23;10.90;;;5.10;;
66800;SDS011;53703;50.326;19.122;2023-10-09T14:14:57;9.50;;;4.60;;
66800;SDS011;53703;50.326;19.122;2023-10-09T14:17:28;9.10;;;5.00;;
66800;SDS011;53703;50.326;19.122;2023-10-09T14:19:58;10.60;;;5.50;;
66800;SDS011;53703;50.326;19.122;2023-10-09T14:22:48;9.50;;;5.70;;
66800;SDS011;53703;50.326;19.122;2023-10-09T14:25:20;10.90;;;5.70;;
66800;SDS011;53703;50.326;19.122;2023-10-09T14:27:49;8.80;;;5.40;;
66800;SDS011;53703;50.326;19.122;2023-10-09T14:30:21;11.00;;;5.70;;
66800;SDS011;53703;50.326;19.122;2023-10-09T14:32:58;10.20;;;6.10;;
66800;SDS011;53703;50.326;19.122;2023-10-09T14:35:33;11.10;;;6.70;;
66800;SDS011;53703;50.326;19.122;2023-10-09T14:38:03;14.20;;;6.60;;
66800;SDS011;53703;50.326;19.122;2023-10-09T14:40:42;11.80;;;7.00;;
66800;SDS011;53703;50.326;19.122;2023-10-09T14:43:13;20.40;;;10.90;;
66800;SDS011;53703;50.326;19.122;2023-10-09T14:45:49;17.10;;;9.90;;
66800;SDS011;53703;50.326;19.122;2023-10-09T14:48:21;16.40;;;9.50;;
66800;SDS011;53703;50.326;19.122;2023-10-09T14:50:54;15.60;;;8.90;;
66800;SDS011;53703;50.326;19.122;2023-10-09T14:53:33;17.30;;;9.50;;
66800;SDS011;53703;50.326;19.122;2023-10-09T14:56:02;15.80;;;8.60;;
66800;SDS011;53703;50.326;19.122;2023-10-09T14:58:36;16.60;;;8.90;;
66800;SDS011;53703;50.326;19.122;2023-10-09T15:01:10;15.10;;;8.00;;
66800;SDS011;53703;50.326;19.122;2023-10-09T15:03:43;14.40;;;9.00;;
66800;SDS011;53703;50.326;19.122;2023-10-09T15:06:15;16.80;;;8.30;;
66800;SDS011;53703;50.326;19.122;2023-10-09T15:08:46;18.60;;;9.40;;
66800;SDS011;53703;50.326;19.122;2023-10-09T15:11:15;21.90;;;11.10;;
66800;SDS011;53703;50.326;19.122;2023-10-09T15:13:44;32.30;;;13.70;;
66800;SDS011;53703;50.326;19.122;2023-10-09T15:16:15;22.40;;;10.60;;
66800;SDS011;53703;50.326;19.122;2023-10-09T15:18:44;34.70;;;14.80;;
66800;SDS011;53703;50.326;19.122;2023-10-09T15:21:14;51.50;;;20.20;;
66800;SDS011;53703;50.326;19.122;2023-10-09T15:23:44;34.70;;;15.60;;
66800;SDS011;53703;50.326;19.122;2023-10-09T15:26:13;38.10;;;16.60;;
66800;SDS011;53703;50.326;19.122;2023-10-09T15:28:45;36.20;;;15.70;;
66800;SDS011;53703;50.326;19.122;2023-10-09T15:31:14;32.80;;;14.70;;
66800;SDS011;53703;50.326;19.122;2023-10-09T15:33:44;30.50;;;13.70;;
66800;SDS011;53703;50.326;19.122;2023-10-09T15:36:15;31.60;;;14.10;;
66800;SDS011;53703;50.326;19.122;2023-10-09T15:38:46;26.50;;;13.20;;
66800;SDS011;53703;50.326;19.122;2023-10-09T15:41:15;33.60;;;15.30;;
66800;SDS011;53703;50.326;19.122;2023-10-09T15:43:46;31.70;;;15.20;;
66800;SDS011;53703;50.326;19.122;2023-10-09T15:46:15;65.70;;;23.70;;
66800;SDS011;53703;50.326;19.122;2023-10-09T15:48:46;51.50;;;18.60;;
66800;SDS011;53703;50.326;19.122;2023-10-09T15:51:19;38.10;;;16.30;;
66800;SDS011;53703;50.326;19.122;2023-10-09T15:53:49;35.20;;;15.30;;
66800;SDS011;53703;50.326;19.122;2023-10-09T15:56:19;36.30;;;15.30;;
66800;SDS011;53703;50.326;19.122;2023-10-09T15:58:49;31.30;;;14.60;;
66800;SDS011;53703;50.326;19.122;2023-10-09T16:03:51;47.60;;;21.10;;
66800;SDS011;53703;50.326;19.122;2023-10-09T16:06:21;38.90;;;17.50;;
66800;SDS011;53703;50.326;19.122;2023-10-09T16:08:55;37.00;;;16.30;;
66800;SDS011;53703;50.326;19.122;2023-10-09T16:11:24;51.30;;;19.70;;
66800;SDS011;53703;50.326;19.122;2023-10-09T16:13:54;39.00;;;17.80;;
66800;SDS011;53703;50.326;19.122;2023-10-09T16:16:26;34.00;;;15.60;;
66800;SDS011;53703;50.326;19.122;2023-10-09T16:18:57;38.20;;;16.80;;
66800;SDS011;53703;50.326;19.122;2023-10-09T16:21:27;34.50;;;16.70;;
66800;SDS011;53703;50.326;19.122;2023-10-09T16:23:57;35.00;;;16.10;;
66800;SDS011;53703;50.326;19.122;2023-10-09T16:26:27;34.40;;;15.70;;
66800;SDS011;53703;50.326;19.122;2023-10-09T16:28:56;30.00;;;15.00;;
66800;SDS011;53703;50.326;19.122;2023-10-09T16:31:27;35.70;;;17.50;;
66800;SDS011;53703;50.326;19.122;2023-10-09T16:34:08;33.60;;;16.00;;
66800;SDS011;53703;50.326;19.122;2023-10-09T16:36:41;33.20;;;15.50;;
66800;SDS011;53703;50.326;19.122;2023-10-09T16:39:10;31.50;;;16.10;;
66800;SDS011;53703;50.326;19.122;2023-10-09T16:41:50;29.20;;;14.50;;
66800;SDS011;53703;50.326;19.122;2023-10-09T16:44:21;31.10;;;14.30;;
66800;SDS011;53703;50.326;19.122;2023-10-09T16:46:52;29.40;;;14.50;;
66800;SDS011;53703;50.326;19.122;2023-10-09T16:49:22;29.80;;;14.90;;
66800;SDS011;53703;50.326;19.122;2023-10-09T16:51:53;32.00;;;14.30;;
66800;SDS011;53703;50.326;19.122;2023-10-09T16:54:23;26.20;;;14.20;;
66800;SDS011;53703;50.326;19.122;2023-10-09T16:56:52;27.10;;;14.00;;
66800;SDS011;53703;50.326;19.122;2023-10-09T16:59:23;27.60;;;14.40;;
66800;SDS011;53703;50.326;19.122;2023-10-09T17:01:52;26.90;;;14.00;;
66800;SDS011;53703;50.326;19.122;2023-10-09T17:04:22;29.40;;;14.10;;
66800;SDS011;53703;50.326;19.122;2023-10-09T17:06:54;24.90;;;12.90;;
66800;SDS011;53703;50.326;19.122;2023-10-09T17:09:26;25.70;;;13.00;;
66800;SDS011;53703;50.326;19.122;2023-10-09T17:11:55;26.70;;;14.80;;
66800;SDS011;53703;50.326;19.122;2023-10-09T17:14:25;29.20;;;14.70;;
66800;SDS011;53703;50.326;19.122;2023-10-09T17:16:55;27.10;;;14.60;;
66800;SDS011;53703;50.326;19.122;2023-10-09T17:19:25;24.00;;;13.50;;
66800;SDS011;53703;50.326;19.122;2023-10-09T17:21:54;22.50;;;13.20;;
66800;SDS011;53703;50.326;19.122;2023-10-09T17:24:24;24.40;;;12.80;;
66800;SDS011;53703;50.326;19.122;2023-10-09T17:26:54;25.20;;;13.00;;
66800;SDS011;53703;50.326;19.122;2023-10-09T17:29:23;27.30;;;13.20;;
66800;SDS011;53703;50.326;19.122;2023-10-09T17:31:54;25.00;;;12.80;;
66800;SDS011;53703;50.326;19.122;2023-10-09T17:34:24;21.30;;;11.60;;
66800;SDS011;53703;50.326;19.122;2023-10-09T17:36:55;22.90;;;12.00;;
66800;SDS011;53703;50.326;19.122;2023-10-09T17:39:25;25.30;;;11.70;;
66800;SDS011;53703;50.326;19.122;2023-10-09T17:41:54;22.00;;;11.60;;
66800;SDS011;53703;50.326;19.122;2023-10-09T17:44:24;22.40;;;12.10;;
66800;SDS011;53703;50.326;19.122;2023-10-09T17:46:55;24.60;;;11.90;;
66800;SDS011;53703;50.326;19.122;2023-10-09T17:49:24;22.90;;;11.00;;
66800;SDS011;53703;50.326;19.122;2023-10-09T17:51:54;21.10;;;10.90;;
66800;SDS011;53703;50.326;19.122;2023-10-09T17:54:23;22.20;;;11.30;;
66800;SDS011;53703;50.326;19.122;2023-10-09T17:56:54;26.10;;;11.40;;
66800;SDS011;53703;50.326;19.122;2023-10-09T17:59:23;22.80;;;11.00;;
66800;SDS011;53703;50.326;19.122;2023-10-09T18:01:55;22.80;;;10.50;;
66800;SDS011;53703;50.326;19.122;2023-10-09T18:04:25;24.70;;;11.40;;
66800;SDS011;53703;50.326;19.122;2023-10-09T18:06:54;23.60;;;11.20;;
66800;SDS011;53703;50.326;19.122;2023-10-09T18:09:24;25.40;;;11.50;;
66800;SDS011;53703;50.326;19.122;2023-10-09T18:11:58;22.00;;;11.30;;
66800;SDS011;53703;50.326;19.122;2023-10-09T18:14:29;22.50;;;10.80;;
66800;SDS011;53703;50.326;19.122;2023-10-09T18:16:58;22.80;;;10.70;;
66800;SDS011;53703;50.326;19.122;2023-10-09T18:19:28;20.50;;;11.80;;
66800;SDS011;53703;50.326;19.122;2023-10-09T18:21:58;21.80;;;11.00;;
66800;SDS011;53703;50.326;19.122;2023-10-09T18:24:28;21.10;;;10.40;;
66800;SDS011;53703;50.326;19.122;2023-10-09T18:26:58;22.50;;;11.10;;
66800;SDS011;53703;50.326;19.122;2023-10-09T18:32:00;22.30;;;10.20;;
66800;SDS011;53703;50.326;19.122;2023-10-09T18:34:31;20.50;;;10.60;;
66800;SDS011;53703;50.326;19.122;2023-10-09T18:37:02;23.80;;;11.10;;
66800;SDS011;53703;50.326;19.122;2023-10-09T18:39:35;26.00;;;11.20;;
66800;SDS011;53703;50.326;19.122;2023-10-09T18:42:07;19.60;;;9.90;;
66800;SDS011;53703;50.326;19.122;2023-10-09T18:44:37;20.20;;;9.80;;
66800;SDS011;53703;50.326;19.122;2023-10-09T18:47:09;22.60;;;10.90;;
66800;SDS011;53703;50.326;19.122;2023-10-09T18:49:43;25.20;;;11.20;;
66800;SDS011;53703;50.326;19.122;2023-10-09T18:52:12;26.70;;;11.70;;
66800;SDS011;53703;50.326;19.122;2023-10-09T18:54:42;24.30;;;11.00;;
66800;SDS011;53703;50.326;19.122;2023-10-09T18:57:11;24.60;;;11.20;;
66800;SDS011;53703;50.326;19.122;2023-10-09T18:59:41;24.90;;;12.10;;
66800;SDS011;53703;50.326;19.122;2023-10-09T19:02:11;23.20;;;10.60;;
66800;SDS011;53703;50.326;19.122;2023-10-09T19:04:42;24.00;;;10.30;;
66800;SDS011;53703;50.326;19.122;2023-10-09T19:07:12;23.30;;;11.20;;
66800;SDS011;53703;50.326;19.122;2023-10-09T19:09:41;27.30;;;11.60;;
66800;SDS011;53703;50.326;19.122;2023-10-09T19:12:12;25.90;;;11.60;;
66800;SDS011;53703;50.326;19.122;2023-10-09T19:14:41;26.00;;;11.40;;
66800;SDS011;53703;50.326;19.122;2023-10-09T19:17:11;23.90;;;11.60;;
66800;SDS011;53703;50.326;19.122;2023-10-09T19:19:40;23.80;;;10.50;;
66800;SDS011;53703;50.326;19.122;2023-10-09T19:22:10;27.40;;;11.50;;
66800;SDS011;53703;50.326;19.122;2023-10-09T19:24:41;27.80;;;12.20;;
66800;SDS011;53703;50.326;19.122;2023-10-09T19:27:10;21.70;;;11.10;;
66800;SDS011;53703;50.326;19.122;2023-10-09T19:29:41;23.60;;;10.90;;
66800;SDS011;53703;50.326;19.122;2023-10-09T19:32:14;27.00;;;12.10;;
66800;SDS011;53703;50.326;19.122;2023-10-09T19:34:45;27.90;;;11.50;;
66800;SDS011;53703;50.326;19.122;2023-10-09T19:37:15;25.00;;;10.40;;
66800;SDS011;53703;50.326;19.122;2023-10-09T19:39:47;25.20;;;11.20;;
66800;SDS011;53703;50.326;19.122;2023-10-09T19:42:17;23.80;;;10.40;;
66800;SDS011;53703;50.326;19.122;2023-10-09T19:44:48;27.60;;;11.40;;
66800;SDS011;53703;50.326;19.122;2023-10-09T19:47:20;22.90;;;10.80;;
66800;SDS011;53703;50.326;19.122;2023-10-09T19:49:51;23.70;;;10.90;;
66800;SDS011;53703;50.326;19.122;2023-10-09T19:52:20;26.70;;;11.20;;
66800;SDS011;53703;50.326;19.122;2023-10-09T19:54:50;26.00;;;11.50;;
66800;SDS011;53703;50.326;19.122;2023-10-09T19:57:23;25.90;;;11.10;;
66800;SDS011;53703;50.326;19.122;2023-10-09T19:59:53;25.70;;;11.50;;
66800;SDS011;53703;50.326;19.122;2023-10-09T20:02:23;26.30;;;11.60;;
66800;SDS011;53703;50.326;19.122;2023-10-09T20:04:52;26.50;;;11.20;;
66800;SDS011;53703;50.326;19.122;2023-10-09T20:07:22;27.00;;;11.50;;
66800;SDS011;53703;50.326;19.122;2023-10-09T20:09:51;26.10;;;12.50;;
66800;SDS011;53703;50.326;19.122;2023-10-09T20:12:25;28.10;;;11.70;;
66800;SDS011;53703;50.326;19.122;2023-10-09T20:14:57;29.40;;;11.00;;
66800;SDS011;53703;50.326;19.122;2023-10-09T20:17:28;23.00;;;11.00;;
66800;SDS011;53703;50.326;19.122;2023-10-09T20:19:59;25.20;;;11.40;;
66800;SDS011;53703;50.326;19.122;2023-10-09T20:25:00;22.00;;;10.70;;
66800;SDS011;53703;50.326;19.122;2023-10-09T20:27:29;21.50;;;10.70;;
66800;SDS011;53703;50.326;19.122;2023-10-09T20:29:59;24.20;;;11.60;;
66800;SDS011;53703;50.326;19.122;2023-10-09T20:32:29;24.50;;;11.10;;
66800;SDS011;53703;50.326;19.122;2023-10-09T20:34:59;23.40;;;10.80;;
66800;SDS011;53703;50.326;19.122;2023-10-09T20:37:29;25.70;;;11.30;;
66800;SDS011;53703;50.326;19.122;2023-10-09T20:39:58;23.00;;;10.50;;
66800;SDS011;53703;50.326;19.122;2023-10-09T20:42:28;25.50;;;10.90;;
66800;SDS011;53703;50.326;19.122;2023-10-09T20:44:57;24.10;;;11.10;;
66800;SDS011;53703;50.326;19.122;2023-10-09T20:47:28;23.30;;;10.30;;
66800;SDS011;53703;50.326;19.122;2023-10-09T20:49:59;20.90;;;10.20;;
66800;SDS011;53703;50.326;19.122;2023-10-09T20:52:29;23.90;;;10.70;;
66800;SDS011;53703;50.326;19.122;2023-10-09T20:54:59;24.40;;;11.10;;
66800;SDS011;53703;50.326;19.122;2023-10-09T20:57:28;22.50;;;9.80;;
66800;SDS011;53703;50.326;19.122;2023-10-09T20:59:58;22.20;;;10.50;;
66800;SDS011;53703;50.326;19.122;2023-10-09T21:02:27;21.90;;;10.50;;
66800;SDS011;53703;50.326;19.122;2023-10-09T21:04:57;21.00;;;10.20;;
66800;SDS011;53703;50.326;19.122;2023-10-09T21:07:26;21.00;;;10.00;;
66800;SDS011;53703;50.326;19.122;2023-10-09T21:09:59;24.50;;;10.90;;
66800;SDS011;53703;50.326;19.122;2023-10-09T21:12:29;20.80;;;9.60;;
66800;SDS011;53703;50.326;19.122;2023-10-09T21:14:58;22.10;;;10.30;;
66800;SDS011;53703;50.326;19.122;2023-10-09T21:17:29;23.50;;;10.60;;
66800;SDS011;53703;50.326;19.122;2023-10-09T21:19:58;21.40;;;9.80;;
66800;SDS011;53703;50.326;19.122;2023-10-09T21:22:27;20.00;;;10.20;;
66800;SDS011;53703;50.326;19.122;2023-10-09T21:24:59;18.30;;;9.10;;
66800;SDS011;53703;50.326;19.122;2023-10-09T21:27:28;20.60;;;9.30;;
66800;SDS011;53703;50.326;19.122;2023-10-09T21:29:58;21.80;;;9.40;;
66800;SDS011;53703;50.326;19.122;2023-10-09T21:32:27;19.30;;;9.80;;
66800;SDS011;53703;50.326;19.122;2023-10-09T21:34:57;21.60;;;10.10;;
66800;SDS011;53703;50.326;19.122;2023-10-09T21:37:26;20.50;;;9.10;;
66800;SDS011;53703;50.326;19.122;2023-10-09T21:39:56;19.10;;;9.50;;
66800;SDS011;53703;50.326;19.122;2023-10-09T21:42:30;22.30;;;9.50;;
66800;SDS011;53703;50.326;19.122;2023-10-09T21:45:00;19.20;;;9.30;;
66800;SDS011;53703;50.326;19.122;2023-10-09T21:47:30;18.00;;;8.90;;
66800;SDS011;53703;50.326;19.122;2023-10-09T21:50:01;17.30;;;8.10;;
66800;SDS011;53703;50.326;19.122;2023-10-09T21:52:31;20.10;;;9.50;;
66800;SDS011;53703;50.326;19.122;2023-10-09T21:55:01;19.20;;;9.10;;
66800;SDS011;53703;50.326;19.122;2023-10-09T21:57:32;18.10;;;8.50;;
66800;SDS011;53703;50.326;19.122;2023-10-09T22:00:01;19.00;;;8.90;;
66800;SDS011;53703;50.326;19.122;2023-10-09T22:02:41;20.50;;;9.20;;
66800;SDS011;53703;50.326;19.122;2023-10-09T22:05:12;18.90;;;9.00;;
66800;SDS011;53703;50.326;19.122;2023-10-09T22:07:41;16.30;;;8.50;;
66800;SDS011;53703;50.326;19.122;2023-10-09T22:10:11;18.70;;;8.80;;
66800;SDS011;53703;50.326;19.122;2023-10-09T22:12:44;17.60;;;9.00;;
66800;SDS011;53703;50.326;19.122;2023-10-09T22:15:14;16.60;;;8.30;;
66800;SDS011;53703;50.326;19.122;2023-10-09T22:17:46;17.90;;;8.30;;
66800;SDS011;53703;50.326;19.122;2023-10-09T22:20:16;18.00;;;8.20;;
66800;SDS011;53703;50.326;19.122;2023-10-09T22:22:47;15.90;;;8.00;;
66800;SDS011;53703;50.326;19.122;2023-10-09T22:25:24;15.20;;;7.90;;
66800;SDS011;53703;50.326;19.122;2023-10-09T22:27:56;16.40;;;8.50;;
66800;SDS011;53703;50.326;19.122;2023-10-09T22:30:27;14.70;;;7.30;;
66800;SDS011;53703;50.326;19.122;2023-10-09T22:32:57;17.50;;;8.70;;
66800;SDS011;53703;50.326;19.122;2023-10-09T22:35:31;16.70;;;7.70;;
66800;SDS011;53703;50.326;19.122;2023-10-09T22:38:02;13.50;;;7.60;;
66800;SDS011;53703;50.326;19.122;2023-10-09T22:40:39;12.50;;;6.90;;
66800;SDS011;53703;50.326;19.122;2023-10-09T22:43:09;14.90;;;7.50;;
66800;SDS011;53703;50.326;19.122;2023-10-09T22:45:42;15.30;;;7.50;;
66800;SDS011;53703;50.326;19.122;2023-10-09T22:48:16;15.10;;;7.90;;
66800;SDS011;53703;50.326;19.122;2023-10-09T22:50:47;15.00;;;7.70;;
66800;SDS011;53703;50.326;19.122;2023-10-09T22:53:26;15.40;;;7.90;;
66800;SDS011;53703;50.326;19.122;2023-10-09T22:56:05;14.20;;;7.70;;
66800;SDS011;53703;50.326;19.122;2023-10-09T22:58:40;18.20;;;8.50;;
66800;SDS011;53703;50.326;19.122;2023-10-09T23:01:18;14.20;;;7.10;;
66800;SDS011;53703;50.326;19.122;2023-10-09T23:03:50;15.30;;;7.60;;
66800;SDS011;53703;50.326;19.122;2023-10-09T23:06:43;17.90;;;7.80;;
66800;SDS011;53703;50.326;19.122;2023-10-09T23:09:13;14.40;;;7.30;;
66800;SDS011;53703;50.326;19.122;2023-10-09T23:11:44;15.50;;;7.80;;
66800;SDS011;53703;50.326;19.122;2023-10-09T23:14:21;14.10;;;7.00;;
66800;SDS011;53703;50.326;19.122;2023-10-09T23:16:54;16.20;;;7.50;;
66800;SDS011;53703;50.326;19.122;2023-10-09T23:19:34;13.80;;;6.70;;
66800;SDS011;53703;50.326;19.122;2023-10-09T23:22:12;15.00;;;7.10;;
66800;SDS011;53703;50.326;19.122;2023-10-09T23:24:44;13.90;;;7.60;;
66800;SDS011;53703;50.326;19.122;2023-10-09T23:27:19;16.80;;;7.30;;
66800;SDS011;53703;50.326;19.122;2023-10-09T23:30:16;18.60;;;7.40;;
66800;SDS011;53703;50.326;19.122;2023-10-09T23:32:54;15.40;;;7.10;;
66800;SDS011;53703;50.326;19.122;2023-10-09T23:35:36;15.00;;;6.80;;
66800;SDS011;53703;50.326;19.122;2023-10-09T23:38:13;13.40;;;7.00;;
66800;SDS011;53703;50.326;19.122;2023-10-09T23:40:50;14.50;;;6.60;;
66800;SDS011;53703;50.326;19.122;2023-10-09T23:43:19;14.20;;;7.40;;
66800;SDS011;53703;50.326;19.122;2023-10-09T23:45:56;12.50;;;6.60;;
66800;SDS011;53703;50.326;19.122;2023-10-09T23:48:26;13.40;;;7.70;;
66800;SDS011;53703;50.326;19.122;2023-10-09T23:51:00;15.60;;;6.90;;
66800;SDS011;53703;50.326;19.122;2023-10-09T23:53:30;16.20;;;7.50;;
66800;SDS011;53703;50.326;19.122;2023-10-09T23:56:03;15.30;;;8.10;;
66800;SDS011;53703;50.326;19.122;2023-10-09T23:58:37;11.20;;;6.40;;
